Terminal Aerodrome Forecast
Issued by NWS Cleveland, OH

Home | Current Version | Previous Version | Text Only | Print | Product List | Glossary Off
Versions: 1 2 3 4 5 6 7 8 9 10 11 12 13 14 15 16 17

000
FTUS41 KCLE 142328
TAFMFD
TAF
KMFD 142328Z 1500/1524 VRB03KT P6SM SCT250
     FM151300 20008KT P6SM BKN100
     FM151600 22012KT P6SM OVC035
     FM151800 25012G22KT P6SM OVC025
     FM152300 26010KT P6SM BKN035=

USA.gov is the U.S. government's official web portal to all federal, state and local government web resources and services.